createdAt,value
2022-10-22T00:00:35.594Z,13.2
2022-10-22T00:01:52.698Z,13.2
2022-10-22T00:03:09.802Z,13.2
2022-10-22T00:04:26.906Z,13.2
2022-10-22T00:05:44.010Z,13.2
2022-10-22T00:07:01.115Z,13.2
2022-10-22T00:08:18.219Z,13.2
2022-10-22T00:09:34.339Z,13.2
2022-10-22T00:10:51.444Z,13.2
2022-10-22T00:12:08.548Z,13.2
2022-10-22T00:13:25.652Z,13.3
2022-10-22T00:14:42.756Z,13.3
2022-10-22T00:15:59.860Z,13.3
2022-10-22T00:17:16.964Z,13.3
2022-10-22T00:18:34.069Z,13.4
2022-10-22T00:19:51.173Z,13.4
2022-10-22T00:21:08.277Z,13.4
2022-10-22T00:22:25.381Z,13.4
2022-10-22T00:23:42.485Z,13.4
2022-10-22T00:24:59.589Z,13.4
2022-10-22T00:26:15.710Z,13.4
2022-10-22T00:27:32.814Z,13.4
2022-10-22T00:28:49.918Z,13.4
2022-10-22T00:30:07.022Z,13.4
2022-10-22T00:31:24.127Z,13.4
2022-10-22T00:32:41.231Z,13.4
2022-10-22T00:33:58.335Z,13.4
2022-10-22T00:35:15.439Z,13.3
2022-10-22T00:36:32.543Z,13.3
2022-10-22T00:37:49.647Z,13.2
2022-10-22T00:39:06.751Z,13.1
2022-10-22T00:40:23.856Z,13.1
2022-10-22T00:41:40.960Z,13.1
2022-10-22T00:42:57.080Z,13.1
2022-10-22T00:44:14.184Z,13.2
2022-10-22T00:45:31.289Z,13.2
2022-10-22T00:46:48.393Z,13.2
2022-10-22T00:48:05.497Z,13.2
2022-10-22T00:49:22.601Z,13.2
2022-10-22T00:50:39.705Z,13.3
2022-10-22T00:51:56.810Z,13.3
2022-10-22T00:53:13.914Z,13.3
2022-10-22T00:54:31.018Z,13.3
2022-10-22T00:55:48.122Z,13.3
2022-10-22T00:57:05.226Z,13.3
2022-10-22T00:58:22.330Z,13.3
2022-10-22T00:59:38.451Z,13.3
2022-10-22T01:00:55.555Z,13.3
2022-10-22T01:02:12.659Z,13.3
2022-10-22T01:03:29.763Z,13.3
2022-10-22T01:04:46.868Z,13.3
2022-10-22T01:06:03.972Z,13.3
2022-10-22T01:07:21.076Z,13.2
2022-10-22T01:08:38.180Z,13.3
2022-10-22T01:09:55.284Z,13.3
2022-10-22T01:11:12.388Z,13.2
2022-10-22T01:12:29.492Z,13.2
2022-10-22T01:13:46.597Z,13.2
2022-10-22T01:15:03.701Z,13.2
2022-10-22T01:16:19.821Z,13.3
2022-10-22T01:17:36.925Z,13.2
2022-10-22T01:18:54.030Z,13.3
2022-10-22T01:20:11.134Z,13.3
2022-10-22T01:21:28.238Z,13.2
2022-10-22T01:22:45.342Z,13.2
2022-10-22T01:24:01.462Z,13.2
2022-10-22T01:25:18.566Z,13.2
2022-10-22T01:26:35.671Z,13.2
2022-10-22T01:27:52.775Z,13.2
2022-10-22T01:29:09.879Z,13.2
2022-10-22T01:30:26.983Z,13.2
2022-10-22T01:31:44.087Z,13.3
2022-10-22T01:33:01.191Z,13.3
2022-10-22T01:34:18.296Z,13.3
2022-10-22T01:35:35.400Z,13.3
2022-10-22T01:36:52.504Z,13.3
2022-10-22T01:38:09.609Z,13.4
2022-10-22T01:39:26.713Z,13.4
2022-10-22T01:40:42.833Z,13.4
2022-10-22T01:41:59.937Z,13.5
2022-10-22T01:43:17.041Z,13.5
2022-10-22T01:44:34.146Z,13.5
2022-10-22T01:45:51.250Z,13.6
2022-10-22T01:47:08.354Z,13.6
2022-10-22T01:48:25.458Z,13.6
2022-10-22T01:49:42.563Z,13.6
2022-10-22T01:50:59.667Z,13.7
2022-10-22T01:52:16.771Z,13.7
2022-10-22T01:53:33.875Z,13.7
2022-10-22T01:54:50.979Z,13.7
2022-10-22T01:56:08.083Z,13.6
2022-10-22T01:57:24.204Z,13.6
2022-10-22T01:58:41.308Z,13.6
2022-10-22T01:59:58.412Z,13.6
2022-10-22T02:01:15.516Z,13.6
2022-10-22T02:02:32.621Z,13.7
2022-10-22T02:03:49.725Z,13.6
2022-10-22T02:05:06.829Z,13.6
2022-10-22T02:06:23.931Z,13.7
2022-10-22T02:07:41.035Z,13.6
2022-10-22T02:08:58.139Z,13.6
2022-10-22T02:10:15.243Z,13.5
2022-10-22T02:11:32.348Z,13.5
2022-10-22T02:12:49.452Z,13.5
2022-10-22T02:14:05.572Z,13.5
2022-10-22T02:15:22.676Z,13.6
2022-10-22T02:16:39.780Z,13.6
2022-10-22T02:17:56.884Z,13.6
2022-10-22T02:19:13.988Z,13.6
2022-10-22T02:20:31.092Z,13.7
2022-10-22T02:21:48.197Z,13.7
2022-10-22T02:23:05.301Z,13.7
2022-10-22T02:24:22.405Z,13.7
2022-10-22T02:25:39.509Z,13.7
2022-10-22T02:26:56.613Z,13.7
2022-10-22T02:28:13.717Z,13.7
2022-10-22T02:29:30.821Z,13.7
2022-10-22T02:30:46.941Z,13.8
2022-10-22T02:32:04.046Z,13.8
2022-10-22T02:33:21.150Z,13.8
2022-10-22T02:34:38.254Z,13.8
2022-10-22T02:35:55.358Z,13.8
2022-10-22T02:37:12.462Z,13.7
2022-10-22T02:38:29.566Z,13.8
2022-10-22T02:39:46.670Z,13.8
2022-10-22T02:41:03.775Z,13.8
2022-10-22T02:42:20.880Z,13.8
2022-10-22T02:43:37.984Z,13.8
2022-10-22T02:44:55.088Z,13.9
2022-10-22T02:46:12.192Z,13.9
2022-10-22T02:47:28.313Z,13.9
2022-10-22T02:48:45.417Z,13.9
2022-10-22T02:50:02.521Z,13.9
2022-10-22T02:51:19.625Z,13.9
2022-10-22T02:52:36.729Z,13.9
2022-10-22T02:53:53.833Z,14
2022-10-22T02:55:10.937Z,13.9
2022-10-22T02:56:28.042Z,13.9
2022-10-22T02:57:45.146Z,13.9
2022-10-22T02:59:02.250Z,14
2022-10-22T03:00:19.354Z,14
2022-10-22T03:01:36.458Z,13.9
2022-10-22T03:02:53.562Z,13.9
2022-10-22T03:04:09.682Z,14
2022-10-22T03:05:26.786Z,14
2022-10-22T03:06:43.891Z,14
2022-10-22T03:08:00.995Z,14
2022-10-22T03:09:18.099Z,13.9
2022-10-22T03:10:35.203Z,14
2022-10-22T03:11:52.307Z,14
2022-10-22T03:13:09.411Z,14
2022-10-22T03:14:26.515Z,14
2022-10-22T03:15:43.620Z,14
2022-10-22T03:17:00.724Z,14
2022-10-22T03:18:17.828Z,14
2022-10-22T03:19:34.932Z,14
2022-10-22T03:20:51.052Z,14
2022-10-22T03:22:08.157Z,14.1
2022-10-22T03:23:25.261Z,14
2022-10-22T03:24:42.365Z,14.1
2022-10-22T03:25:59.469Z,14.1
2022-10-22T03:27:16.573Z,14.1
2022-10-22T03:28:33.678Z,14.1
2022-10-22T03:29:50.782Z,14
2022-10-22T03:31:07.886Z,14
2022-10-22T03:32:24.990Z,14
2022-10-22T03:33:42.094Z,14
2022-10-22T03:34:59.198Z,14.1
2022-10-22T03:36:16.302Z,14
2022-10-22T03:37:32.422Z,14
2022-10-22T03:38:49.527Z,14.1
2022-10-22T03:40:06.632Z,14.1
2022-10-22T03:41:23.736Z,14.2
2022-10-22T03:42:40.840Z,14.2
2022-10-22T03:43:57.944Z,14.2
2022-10-22T03:45:15.048Z,14.2
2022-10-22T03:46:32.152Z,14.1
2022-10-22T03:47:49.256Z,14.1
2022-10-22T03:49:06.362Z,14.1
2022-10-22T03:50:23.466Z,14.1
2022-10-22T03:51:40.570Z,14.1
2022-10-22T03:52:57.674Z,14
2022-10-22T03:54:13.794Z,14
2022-10-22T03:55:30.899Z,14
2022-10-22T03:56:48.003Z,14
2022-10-22T03:58:05.107Z,14
2022-10-22T03:59:22.211Z,14
2022-10-22T04:00:39.315Z,13.9
2022-10-22T04:01:56.421Z,13.9
2022-10-22T04:03:13.526Z,14
2022-10-22T04:04:30.630Z,14
2022-10-22T04:05:47.734Z,14
2022-10-22T04:07:04.838Z,14
2022-10-22T04:08:21.942Z,14
2022-10-22T04:09:39.046Z,14
2022-10-22T04:10:55.166Z,14
2022-10-22T04:12:12.270Z,14
2022-10-22T04:13:29.375Z,14
2022-10-22T04:14:46.479Z,14
2022-10-22T04:16:03.583Z,13.9
2022-10-22T04:17:20.687Z,14
2022-10-22T04:18:37.792Z,14
2022-10-22T04:19:54.896Z,14
2022-10-22T04:21:12.000Z,14
2022-10-22T04:22:29.104Z,14
2022-10-22T04:23:46.208Z,14
2022-10-22T04:25:03.313Z,13.9
2022-10-22T04:26:20.417Z,14
2022-10-22T04:27:36.537Z,13.9
2022-10-22T04:28:53.641Z,13.9
2022-10-22T04:30:10.745Z,13.9
2022-10-22T04:31:27.849Z,13.9
2022-10-22T04:32:44.953Z,13.8
2022-10-22T04:34:02.057Z,13.8
2022-10-22T04:35:19.162Z,13.8
2022-10-22T04:36:36.266Z,13.9
2022-10-22T04:37:53.370Z,13.9
2022-10-22T04:39:10.474Z,13.9
2022-10-22T04:40:27.578Z,13.8
2022-10-22T04:41:44.682Z,13.9
2022-10-22T04:43:01.786Z,13.9
2022-10-22T04:44:17.907Z,13.9
2022-10-22T04:45:35.011Z,14
2022-10-22T04:46:52.115Z,14
2022-10-22T04:48:09.219Z,14
2022-10-22T04:49:26.324Z,14
2022-10-22T04:50:43.428Z,14.1
2022-10-22T04:52:00.532Z,14.1
2022-10-22T04:53:17.636Z,14
2022-10-22T04:54:34.740Z,14.1
2022-10-22T04:55:51.844Z,14.1
2022-10-22T04:57:08.949Z,14.1
2022-10-22T04:58:26.053Z,14.1
2022-10-22T04:59:43.157Z,14
2022-10-22T05:00:59.277Z,14
2022-10-22T05:02:16.381Z,14
2022-10-22T05:03:33.486Z,14
2022-10-22T05:04:50.590Z,14.1
2022-10-22T05:06:07.694Z,14.1
2022-10-22T05:07:24.798Z,14.1
2022-10-22T05:08:41.903Z,14.1
2022-10-22T05:09:59.007Z,14.1
2022-10-22T05:11:16.111Z,14.1
2022-10-22T05:12:33.215Z,14.2
2022-10-22T05:13:50.319Z,14.1
2022-10-22T05:15:07.421Z,14.2
2022-10-22T05:16:24.525Z,14.2
2022-10-22T05:17:40.646Z,14.2
2022-10-22T05:18:57.750Z,14.2
2022-10-22T05:20:14.854Z,14.2
2022-10-22T05:21:31.959Z,14.1
2022-10-22T05:22:49.063Z,14.1
2022-10-22T05:24:06.167Z,14.2
2022-10-22T05:25:23.271Z,14.2
2022-10-22T05:26:40.375Z,14.2
2022-10-22T05:27:57.479Z,14.1
2022-10-22T05:29:14.583Z,14.1
2022-10-22T05:30:31.688Z,14.1
2022-10-22T05:31:48.792Z,14.1
2022-10-22T05:33:05.896Z,14.1
2022-10-22T05:34:22.016Z,14.1
2022-10-22T05:35:39.120Z,14.1
2022-10-22T05:36:56.224Z,14.1
2022-10-22T05:38:13.328Z,14.2
2022-10-22T05:39:30.432Z,14.2
2022-10-22T05:40:47.536Z,14.2
2022-10-22T05:42:03.657Z,14.2
2022-10-22T05:43:20.761Z,14.2
2022-10-22T05:44:37.865Z,14.3
2022-10-22T05:45:54.970Z,14.3
2022-10-22T05:47:12.074Z,14.3
2022-10-22T05:48:29.178Z,14.3
2022-10-22T05:49:46.282Z,14.3
2022-10-22T05:51:03.386Z,14.4
2022-10-22T05:52:20.490Z,14.4
2022-10-22T05:53:37.595Z,14.4
2022-10-22T05:54:54.699Z,14.4
2022-10-22T05:56:11.803Z,14.4
2022-10-22T05:57:28.907Z,14.4
2022-10-22T05:58:45.027Z,14.4
2022-10-22T06:00:02.132Z,14.4
2022-10-22T06:01:19.234Z,14.4
2022-10-22T06:02:36.338Z,14.5
2022-10-22T06:03:53.443Z,14.5
2022-10-22T06:05:10.547Z,14.5
2022-10-22T06:06:27.651Z,14.5
2022-10-22T06:07:44.755Z,14.6
2022-10-22T06:09:01.859Z,14.6
2022-10-22T06:10:18.963Z,14.6
2022-10-22T06:11:36.068Z,14.6
2022-10-22T06:12:53.172Z,14.6
2022-10-22T06:14:10.276Z,14.7
2022-10-22T06:15:26.396Z,14.6
2022-10-22T06:16:43.500Z,14.7
2022-10-22T06:18:00.604Z,14.6
2022-10-22T06:19:17.708Z,14.6
2022-10-22T06:20:34.813Z,14.6
2022-10-22T06:21:51.917Z,14.6
2022-10-22T06:23:09.021Z,14.6
2022-10-22T06:24:26.125Z,14.6
2022-10-22T06:25:43.229Z,14.6
2022-10-22T06:27:00.334Z,14.6
2022-10-22T06:28:17.438Z,14.6
2022-10-22T06:29:34.542Z,14.6
2022-10-22T06:30:51.646Z,14.6
2022-10-22T06:32:07.766Z,14.6
2022-10-22T06:33:24.870Z,14.7
2022-10-22T06:34:41.974Z,14.8
2022-10-22T06:35:59.078Z,14.8
2022-10-22T06:37:16.182Z,14.8
2022-10-22T06:38:33.287Z,14.8
2022-10-22T06:39:50.391Z,14.8
2022-10-22T06:41:07.495Z,14.8
2022-10-22T06:42:24.600Z,14.9
2022-10-22T06:43:41.704Z,14.9
2022-10-22T06:44:58.808Z,14.9
2022-10-22T06:46:15.912Z,14.9
2022-10-22T06:47:33.016Z,14.9
2022-10-22T06:48:49.137Z,14.9
2022-10-22T06:50:06.241Z,14.9
2022-10-22T06:51:23.345Z,15
2022-10-22T06:52:40.449Z,15
2022-10-22T06:53:57.553Z,15
2022-10-22T06:55:14.658Z,15
2022-10-22T06:56:31.762Z,15.1
2022-10-22T06:57:48.866Z,15.2
2022-10-22T06:59:05.970Z,15.3
2022-10-22T07:00:23.074Z,15.4
2022-10-22T07:01:40.179Z,15.4
2022-10-22T07:02:57.283Z,15.6
2022-10-22T07:04:14.387Z,15.6
2022-10-22T07:05:30.507Z,15.7
2022-10-22T07:06:47.611Z,15.8
2022-10-22T07:08:04.716Z,15.9
2022-10-22T07:09:21.820Z,15.9
2022-10-22T07:10:38.925Z,16.2
2022-10-22T07:11:56.030Z,16.2
2022-10-22T07:13:13.134Z,16.6
2022-10-22T07:14:30.238Z,17
2022-10-22T07:15:47.342Z,17.4
2022-10-22T07:17:04.446Z,17.5
2022-10-22T07:18:21.550Z,17.7
2022-10-22T07:19:38.653Z,17.7
2022-10-22T07:20:55.757Z,17.8
2022-10-22T07:22:11.877Z,17.9
2022-10-22T07:23:28.982Z,17.8
2022-10-22T07:24:46.085Z,17.7
2022-10-22T07:26:03.189Z,17.7
2022-10-22T07:27:20.293Z,17.7
2022-10-22T07:28:37.397Z,17.8
2022-10-22T07:29:54.502Z,18.2
2022-10-22T07:31:11.606Z,18.3
2022-10-22T07:32:28.710Z,18.6
2022-10-22T07:33:45.814Z,18.9
2022-10-22T07:35:02.919Z,19.2
2022-10-22T07:36:20.024Z,19.4
2022-10-22T07:37:37.128Z,19.7
2022-10-22T07:38:53.248Z,19.9
2022-10-22T07:40:10.352Z,20
2022-10-22T07:41:27.456Z,20.1
2022-10-22T07:42:44.560Z,20.2
2022-10-22T07:44:01.663Z,20.3
2022-10-22T07:45:18.768Z,20.4
2022-10-22T07:46:35.872Z,20.6
2022-10-22T07:47:52.976Z,20.7
2022-10-22T07:49:10.080Z,20.9
2022-10-22T07:50:27.184Z,21
2022-10-22T07:51:44.288Z,21.1
2022-10-22T07:53:01.390Z,21.1
2022-10-22T07:54:18.494Z,21.2
2022-10-22T07:55:34.614Z,21.4
2022-10-22T07:56:51.718Z,21.4
2022-10-22T07:58:08.822Z,21.6
2022-10-22T07:59:25.926Z,21.5
2022-10-22T08:00:43.030Z,21.4
2022-10-22T08:02:00.134Z,21.5
2022-10-22T08:03:17.238Z,21.6
2022-10-22T08:04:34.342Z,21.6
2022-10-22T08:05:51.446Z,21.6
2022-10-22T08:07:08.551Z,21.6
2022-10-22T08:08:25.655Z,21.7
2022-10-22T08:09:42.759Z,21.7
2022-10-22T08:10:59.863Z,21.7
2022-10-22T08:12:15.984Z,21.8
2022-10-22T08:13:33.088Z,21.9
2022-10-22T08:14:50.192Z,22
2022-10-22T08:16:07.296Z,22
2022-10-22T08:17:24.400Z,22
2022-10-22T08:18:41.505Z,22.1
2022-10-22T08:19:58.609Z,22.2
2022-10-22T08:21:15.713Z,22.4
2022-10-22T08:22:32.817Z,22.4
2022-10-22T08:23:49.921Z,22.6
2022-10-22T08:25:07.024Z,22.6
2022-10-22T08:26:24.128Z,22.7
2022-10-22T08:27:41.232Z,22.4
2022-10-22T08:28:57.353Z,22.3
2022-10-22T08:30:14.457Z,22.2
2022-10-22T08:31:31.561Z,22.2
2022-10-22T08:32:48.665Z,22.3
2022-10-22T08:34:05.769Z,22.4
2022-10-22T08:35:22.871Z,22.4
2022-10-22T08:36:39.975Z,22.5
2022-10-22T08:37:57.079Z,22.5
2022-10-22T08:39:14.183Z,22.7
2022-10-22T08:40:31.288Z,22.7
2022-10-22T08:41:48.392Z,22.6
2022-10-22T08:43:05.496Z,22.6
2022-10-22T08:44:22.600Z,22.6
2022-10-22T08:45:38.720Z,22.5
2022-10-22T08:46:55.824Z,22.6
2022-10-22T08:48:12.928Z,22.5
2022-10-22T08:49:30.032Z,22.6
2022-10-22T08:50:47.136Z,22.6
2022-10-22T08:52:04.241Z,22.7
2022-10-22T08:53:21.345Z,22.8
2022-10-22T08:54:38.449Z,22.8
2022-10-22T08:55:55.553Z,22.9
2022-10-22T08:57:12.657Z,23
2022-10-22T08:58:29.761Z,23.1
2022-10-22T08:59:46.865Z,23.2
2022-10-22T09:01:03.969Z,23
2022-10-22T09:02:20.089Z,22.8
2022-10-22T09:03:37.193Z,22.6
2022-10-22T09:04:54.297Z,22.5
2022-10-22T09:06:11.402Z,22.6
2022-10-22T09:07:28.505Z,22.5
2022-10-22T09:08:45.609Z,22.5
2022-10-22T09:10:02.713Z,22.4
2022-10-22T09:11:19.817Z,22.1
2022-10-22T09:12:36.921Z,22.1
2022-10-22T09:13:54.027Z,21.9
2022-10-22T09:15:11.131Z,21.8
2022-10-22T09:16:28.235Z,21.7
2022-10-22T09:17:45.339Z,21.6
2022-10-22T09:19:01.459Z,21.6
2022-10-22T09:20:18.563Z,21.4
2022-10-22T09:21:35.667Z,21.2
2022-10-22T09:22:52.772Z,21
2022-10-22T09:24:09.876Z,20.9
2022-10-22T09:25:26.980Z,20.7
2022-10-22T09:26:44.084Z,20.6
2022-10-22T09:28:01.188Z,20.5
2022-10-22T09:29:18.292Z,20.4
2022-10-22T09:30:35.395Z,20.3
2022-10-22T09:31:52.499Z,20.2
2022-10-22T09:33:09.603Z,20.1
2022-10-22T09:34:26.707Z,20.1
2022-10-22T09:35:42.828Z,19.9
2022-10-22T09:36:59.932Z,19.9
2022-10-22T09:38:17.037Z,19.8
2022-10-22T09:39:34.141Z,19.9
2022-10-22T09:40:51.245Z,19.8
2022-10-22T09:42:08.349Z,19.8
2022-10-22T09:43:25.453Z,19.8
2022-10-22T09:44:42.557Z,19.8
2022-10-22T09:45:59.661Z,19.8
2022-10-22T09:47:16.766Z,19.7
2022-10-22T09:48:33.870Z,19.7
2022-10-22T09:49:50.974Z,19.7
2022-10-22T09:51:08.078Z,19.8
2022-10-22T09:52:24.198Z,19.8
2022-10-22T09:53:41.302Z,19.7
2022-10-22T09:54:58.406Z,19.7
2022-10-22T09:56:15.510Z,19.7
2022-10-22T09:57:32.614Z,19.6
2022-10-22T09:58:49.719Z,19.6
2022-10-22T10:00:05.839Z,19.5
2022-10-22T10:01:22.943Z,19.4
2022-10-22T10:02:40.047Z,19.4
2022-10-22T10:03:57.152Z,19.5
2022-10-22T10:05:14.256Z,19.5
2022-10-22T10:06:31.360Z,19.5
2022-10-22T10:07:48.464Z,19.5
2022-10-22T10:09:05.568Z,19.4
2022-10-22T10:10:22.672Z,19.4
2022-10-22T10:11:39.776Z,19.3
2022-10-22T10:12:56.880Z,19.3
2022-10-22T10:14:13.984Z,19.3
2022-10-22T10:15:31.088Z,19.3
2022-10-22T10:16:47.208Z,19.2
2022-10-22T10:18:04.312Z,19.2
2022-10-22T10:19:21.416Z,19.2
2022-10-22T10:20:38.520Z,19.2
2022-10-22T10:21:55.624Z,19.2
2022-10-22T10:23:12.728Z,19.1
2022-10-22T10:24:29.832Z,19.1
2022-10-22T10:25:46.936Z,19.1
2022-10-22T10:27:04.040Z,19.1
2022-10-22T10:28:21.144Z,19
2022-10-22T10:29:38.248Z,19
2022-10-22T10:30:55.352Z,19
2022-10-22T10:32:12.456Z,19
2022-10-22T10:33:28.576Z,19
2022-10-22T10:34:45.680Z,19
2022-10-22T10:36:02.782Z,19
2022-10-22T10:37:19.886Z,19.1
2022-10-22T10:38:36.990Z,19.1
2022-10-22T10:39:54.094Z,19.1
2022-10-22T10:41:11.198Z,19.2
2022-10-22T10:42:28.302Z,19.2
2022-10-22T10:43:45.406Z,19.2
2022-10-22T10:45:02.510Z,19.2
2022-10-22T10:46:19.614Z,19.2
2022-10-22T10:47:36.718Z,19.2
2022-10-22T10:48:53.822Z,19.2
2022-10-22T10:50:09.942Z,19.2
2022-10-22T10:51:27.046Z,19.2
2022-10-22T10:52:44.150Z,19.3
2022-10-22T10:54:01.254Z,19.2
2022-10-22T10:55:18.358Z,19.3
2022-10-22T10:56:35.462Z,19.3
2022-10-22T10:57:52.566Z,19.2
2022-10-22T10:59:09.670Z,19.2
2022-10-22T11:00:26.773Z,19.3
2022-10-22T11:01:43.877Z,19.3
2022-10-22T11:03:00.981Z,19.3
2022-10-22T11:04:18.085Z,19.3
2022-10-22T11:05:35.190Z,19.3
2022-10-22T11:06:51.308Z,19.3
2022-10-22T11:08:08.412Z,19.3
2022-10-22T11:09:25.516Z,19.3
2022-10-22T11:10:42.620Z,19.3
2022-10-22T11:11:59.724Z,19.3
2022-10-22T11:13:16.828Z,19.4
2022-10-22T11:14:33.932Z,19.4
2022-10-22T11:15:51.036Z,19.5
2022-10-22T11:17:08.141Z,19.5
2022-10-22T11:18:25.245Z,19.5
2022-10-22T11:19:42.349Z,19.4
2022-10-22T11:20:59.453Z,19.4
2022-10-22T11:22:16.557Z,19.4
2022-10-22T11:23:32.677Z,19.4
2022-10-22T11:24:49.782Z,19.3
2022-10-22T11:26:06.886Z,19.2
2022-10-22T11:27:23.990Z,19.1
2022-10-22T11:28:41.094Z,19.1
2022-10-22T11:29:58.198Z,19
2022-10-22T11:31:15.300Z,19.1
2022-10-22T11:32:32.404Z,19.1
2022-10-22T11:33:49.508Z,19.1
2022-10-22T11:35:06.612Z,19.1
2022-10-22T11:36:23.716Z,19.2
2022-10-22T11:37:40.820Z,19.3
2022-10-22T11:38:57.924Z,19.4
2022-10-22T11:40:14.044Z,19.5
2022-10-22T11:41:31.148Z,19.6
2022-10-22T11:42:48.252Z,19.6
2022-10-22T11:44:05.356Z,19.6
2022-10-22T11:45:22.460Z,19.7
2022-10-22T11:46:39.564Z,19.7
2022-10-22T11:47:56.668Z,19.7
2022-10-22T11:49:13.772Z,19.6
2022-10-22T11:50:30.876Z,19.6
2022-10-22T11:51:47.980Z,19.6
2022-10-22T11:53:05.084Z,19.7
2022-10-22T11:54:22.188Z,19.7
2022-10-22T11:55:39.292Z,19.6
2022-10-22T11:56:55.412Z,19.7
2022-10-22T11:58:12.516Z,19.6
2022-10-22T11:59:29.620Z,19.6
2022-10-22T12:00:46.724Z,19.6
2022-10-22T12:02:03.828Z,19.6
2022-10-22T12:03:20.932Z,19.5
2022-10-22T12:04:38.036Z,19.4
2022-10-22T12:05:55.140Z,19.4
2022-10-22T12:07:12.244Z,19.4
2022-10-22T12:08:29.348Z,19.4
2022-10-22T12:09:46.451Z,19.4
2022-10-22T12:11:03.553Z,19.4
2022-10-22T12:12:20.658Z,19.3
2022-10-22T12:13:36.778Z,19.3
2022-10-22T12:14:53.882Z,19.2
2022-10-22T12:16:10.986Z,19.2
2022-10-22T12:17:28.090Z,19.1
2022-10-22T12:18:45.193Z,19
2022-10-22T12:20:02.297Z,18.9
2022-10-22T12:21:19.401Z,19
2022-10-22T12:22:36.505Z,19
2022-10-22T12:23:53.610Z,19.1
2022-10-22T12:25:10.714Z,19.2
2022-10-22T12:26:27.818Z,19.2
2022-10-22T12:27:44.921Z,19.3
2022-10-22T12:29:02.025Z,19.3
2022-10-22T12:30:18.145Z,19.3
2022-10-22T12:31:35.249Z,19.3
2022-10-22T12:32:52.353Z,19.3
2022-10-22T12:34:09.457Z,19.3
2022-10-22T12:35:26.562Z,19.4
2022-10-22T12:36:43.666Z,19.5
2022-10-22T12:38:00.769Z,19.4
2022-10-22T12:39:17.873Z,19.4
2022-10-22T12:40:34.977Z,19.4
2022-10-22T12:41:52.081Z,19.3
2022-10-22T12:43:09.185Z,19.2
2022-10-22T12:44:26.289Z,19.1
2022-10-22T12:45:43.393Z,19
2022-10-22T12:46:59.513Z,19
2022-10-22T12:48:16.617Z,19
2022-10-22T12:49:33.721Z,19
2022-10-22T12:50:50.825Z,19
2022-10-22T12:52:07.929Z,19
2022-10-22T12:53:25.033Z,19.1
2022-10-22T12:54:42.137Z,19.1
2022-10-22T12:55:59.241Z,19.1
2022-10-22T12:57:16.345Z,19.1
2022-10-22T12:58:33.449Z,19.1
2022-10-22T12:59:50.553Z,19.1
2022-10-22T13:01:07.657Z,19
2022-10-22T13:02:24.761Z,19
2022-10-22T13:03:40.881Z,18.9
2022-10-22T13:04:57.985Z,18.8
2022-10-22T13:06:15.087Z,18.8
2022-10-22T13:07:32.191Z,18.7
2022-10-22T13:08:49.295Z,18.6
2022-10-22T13:10:06.399Z,18.7
2022-10-22T13:11:23.504Z,18.8
2022-10-22T13:12:40.608Z,18.9
2022-10-22T13:13:57.712Z,19
2022-10-22T13:15:14.816Z,19
2022-10-22T13:16:31.920Z,19
2022-10-22T13:17:49.023Z,19
2022-10-22T13:19:06.128Z,19
2022-10-22T13:20:22.248Z,19
2022-10-22T13:21:39.352Z,19
2022-10-22T13:22:56.457Z,19.1
2022-10-22T13:24:13.560Z,19
2022-10-22T13:25:30.664Z,19.1
2022-10-22T13:26:47.768Z,19
2022-10-22T13:28:04.872Z,19
2022-10-22T13:29:21.976Z,18.9
2022-10-22T13:30:39.080Z,18.7
2022-10-22T13:31:56.184Z,18.7
2022-10-22T13:33:13.288Z,18.6
2022-10-22T13:34:30.392Z,18.5
2022-10-22T13:35:47.496Z,18.5
2022-10-22T13:37:03.616Z,18.4
2022-10-22T13:38:20.720Z,18.4
2022-10-22T13:39:37.824Z,18.5
2022-10-22T13:40:54.928Z,18.5
2022-10-22T13:42:12.032Z,18.5
2022-10-22T13:43:29.136Z,18.6
2022-10-22T13:44:46.240Z,18.7
2022-10-22T13:46:03.345Z,18.8
2022-10-22T13:47:20.449Z,18.7
2022-10-22T13:48:37.553Z,18.8
2022-10-22T13:49:54.657Z,18.7
2022-10-22T13:51:11.761Z,18.6
2022-10-22T13:52:28.866Z,18.6
2022-10-22T13:53:44.986Z,18.7
2022-10-22T13:55:02.090Z,18.8
2022-10-22T13:56:19.194Z,18.8
2022-10-22T13:57:36.299Z,18.9
2022-10-22T13:58:53.403Z,19.1
2022-10-22T14:00:10.507Z,19.1
2022-10-22T14:01:27.611Z,19.2
2022-10-22T14:02:44.715Z,19.1
2022-10-22T14:04:01.819Z,19
2022-10-22T14:05:18.923Z,18.9
2022-10-22T14:06:36.027Z,19
2022-10-22T14:07:53.131Z,19
2022-10-22T14:09:10.234Z,19
2022-10-22T14:10:26.354Z,19
2022-10-22T14:11:43.458Z,19.1
2022-10-22T14:13:00.562Z,19
2022-10-22T14:14:17.666Z,19
2022-10-22T14:15:34.771Z,19
2022-10-22T14:16:51.875Z,18.9
2022-10-22T14:18:07.995Z,18.9
2022-10-22T14:19:25.099Z,18.8
2022-10-22T14:20:42.203Z,18.8
2022-10-22T14:21:59.307Z,18.8
2022-10-22T14:23:16.411Z,18.8
2022-10-22T14:24:33.515Z,18.8
2022-10-22T14:25:50.619Z,18.9
2022-10-22T14:27:07.723Z,19
2022-10-22T14:28:24.827Z,19.1
2022-10-22T14:29:41.931Z,19.2
2022-10-22T14:30:59.035Z,19.3
2022-10-22T14:32:16.139Z,19.3
2022-10-22T14:33:33.243Z,19.3
2022-10-22T14:34:49.363Z,19.3
2022-10-22T14:36:06.467Z,19.3
2022-10-22T14:37:23.571Z,19.4
2022-10-22T14:38:40.675Z,19.4
2022-10-22T14:39:57.779Z,19.4
2022-10-22T14:41:14.883Z,19.4
2022-10-22T14:42:31.987Z,19.5
2022-10-22T14:43:49.091Z,19.4
2022-10-22T14:45:06.194Z,19.4
2022-10-22T14:46:23.298Z,19.3
2022-10-22T14:47:40.402Z,19.4
2022-10-22T14:48:57.507Z,19.3
2022-10-22T14:50:14.611Z,19.3
2022-10-22T14:51:30.731Z,19.2
2022-10-22T14:52:47.835Z,19.1
2022-10-22T14:54:04.939Z,19.1
2022-10-22T14:55:22.043Z,19
2022-10-22T14:56:39.147Z,19
2022-10-22T14:57:56.251Z,18.9
2022-10-22T14:59:13.355Z,18.9
2022-10-22T15:00:30.459Z,18.8
2022-10-22T15:01:47.563Z,18.8
2022-10-22T15:03:04.667Z,18.8
2022-10-22T15:04:21.771Z,18.8
2022-10-22T15:05:38.875Z,18.8
2022-10-22T15:06:55.980Z,18.8
2022-10-22T15:08:12.100Z,18.8
2022-10-22T15:09:29.204Z,18.8
2022-10-22T15:10:46.308Z,18.8
2022-10-22T15:12:03.413Z,18.8
2022-10-22T15:13:20.517Z,18.8
2022-10-22T15:14:37.621Z,18.8
2022-10-22T15:15:54.725Z,18.7
2022-10-22T15:17:11.829Z,18.7
2022-10-22T15:18:28.933Z,18.7
2022-10-22T15:19:46.037Z,18.7
2022-10-22T15:21:03.141Z,18.7
2022-10-22T15:22:20.246Z,18.6
2022-10-22T15:23:37.350Z,18.6
2022-10-22T15:24:53.470Z,18.6
2022-10-22T15:26:10.574Z,18.6
2022-10-22T15:27:27.679Z,18.6
2022-10-22T15:28:44.783Z,18.6
2022-10-22T15:30:01.887Z,18.6
2022-10-22T15:31:18.991Z,18.6
2022-10-22T15:32:36.095Z,18.5
2022-10-22T15:33:53.201Z,18.6
2022-10-22T15:35:10.305Z,18.6
2022-10-22T15:36:27.409Z,18.6
2022-10-22T15:37:44.513Z,18.6
2022-10-22T15:39:01.617Z,18.6
2022-10-22T15:40:18.722Z,18.7
2022-10-22T15:41:34.842Z,18.6
2022-10-22T15:42:51.946Z,18.6
2022-10-22T15:44:09.051Z,18.5
2022-10-22T15:45:26.155Z,18.5
2022-10-22T15:46:43.259Z,18.4
2022-10-22T15:48:00.363Z,18.4
2022-10-22T15:49:17.468Z,18.3
2022-10-22T15:50:34.572Z,18.3
2022-10-22T15:51:51.676Z,18.3
2022-10-22T15:53:08.780Z,18.2
2022-10-22T15:54:25.884Z,18.2
2022-10-22T15:55:42.989Z,18.2
2022-10-22T15:57:00.093Z,18.2
2022-10-22T15:58:16.213Z,18.1
2022-10-22T15:59:33.318Z,18.1
2022-10-22T16:00:50.422Z,18.1
2022-10-22T16:02:07.526Z,18
2022-10-22T16:03:24.630Z,18
2022-10-22T16:04:41.734Z,18
2022-10-22T16:05:58.838Z,17.9
2022-10-22T16:07:15.943Z,17.9
2022-10-22T16:08:33.047Z,17.9
2022-10-22T16:09:50.151Z,17.8
2022-10-22T16:11:07.255Z,17.7
2022-10-22T16:12:24.360Z,17.7
2022-10-22T16:13:41.464Z,17.6
2022-10-22T16:14:57.584Z,17.6
2022-10-22T16:16:14.688Z,17.6
2022-10-22T16:17:31.792Z,17.5
2022-10-22T16:18:48.896Z,17.5
2022-10-22T16:20:06.000Z,17.5
2022-10-22T16:21:23.104Z,17.4
2022-10-22T16:22:40.208Z,17.3
2022-10-22T16:23:57.312Z,17.2
2022-10-22T16:25:14.416Z,17.1
2022-10-22T16:26:31.520Z,17.1
2022-10-22T16:27:48.624Z,17.1
2022-10-22T16:29:05.729Z,17
2022-10-22T16:30:22.833Z,16.9
2022-10-22T16:31:38.953Z,16.9
2022-10-22T16:32:56.057Z,16.9
2022-10-22T16:34:13.161Z,16.9
2022-10-22T16:35:30.264Z,16.8
2022-10-22T16:36:47.368Z,16.7
2022-10-22T16:38:04.472Z,16.6
2022-10-22T16:39:21.576Z,16.6
2022-10-22T16:40:38.680Z,16.6
2022-10-22T16:41:55.784Z,16.6
2022-10-22T16:43:12.888Z,16.5
2022-10-22T16:44:29.992Z,16.5
2022-10-22T16:45:47.096Z,16.5
2022-10-22T16:47:04.200Z,16.4
2022-10-22T16:48:20.320Z,16.4
2022-10-22T16:49:37.424Z,16.3
2022-10-22T16:50:54.528Z,16.2
2022-10-22T16:52:11.632Z,16.2
2022-10-22T16:53:28.737Z,16.2
2022-10-22T16:54:45.841Z,16.1
2022-10-22T16:56:02.945Z,15.9
2022-10-22T16:57:20.050Z,15.8
2022-10-22T16:58:37.154Z,15.7
2022-10-22T16:59:54.259Z,15.6
2022-10-22T17:01:11.363Z,15.5
2022-10-22T17:02:28.468Z,15.4
2022-10-22T17:03:45.572Z,15.4
2022-10-22T17:05:01.693Z,15.4
2022-10-22T17:06:18.798Z,15.4
2022-10-22T17:07:35.902Z,15.4
2022-10-22T17:08:53.007Z,15.4
2022-10-22T17:10:10.111Z,15.3
2022-10-22T17:11:27.215Z,15.2
2022-10-22T17:12:44.319Z,15.2
2022-10-22T17:14:01.424Z,15.1